Coral Topaz — 3ELB7 — position and weather

sailwx.info

Track history (hours):
 
Tides and Currents Weather Stations Pressure Air Temp Water Temp Dewpoint Dewpoint Depression Visibility Wind Speed Wind Dir Waves Ship Positions

Coral Topaz

Last reported at 2014-Dec-17 00:23 UTC. Time now 2014-Dec-18 19:31 UTC.
Position S 25°55' E 153°55'.

Length 225 m; draft 12.5 m.

Type: Ship. MMSI: 372904000.

Date/timePositionNaut miles runAvg speedWind from/ knotsBaromVisibWave heightAir tempDewpointWater temp
2014-Dec-17 00:23S 25°55' E 153°55'16 8.5
2014-Dec-16 22:31S 26°11' E 153°52'11 9.3
2014-Dec-16 21:22S 26°21' E 153°51'810.0
2014-Dec-16 20:33S 26°30' E 153°50'1010.4
2014-Dec-16 19:33S 26°40' E 153°48'1210.5
2014-Dec-16 18:25S 26°52' E 153°47'910.4
2014-Dec-16 17:33S 27°00' E 153°46'1010.5
2014-Dec-16 16:33S 27°11' E 153°44'1110.6
2014-Dec-16 15:33S 27°21' E 153°42'1010.4
2014-Dec-16 14:33S 27°32' E 153°41'1010.0
2014-Dec-16 13:33S 27°42' E 153°39'10 9.8
2014-Dec-16 12:33S 27°51' E 153°40'9 9.3
2014-Dec-16 11:33S 28°00' E 153°42'9 9.0
2014-Dec-16 10:33S 28°09' E 153°44'271 8.7
2014-Dec-15 03:32S 32°34' E 152°36'1010.0
2014-Dec-15 02:33S 32°41' E 152°28'1110.7
2014-Dec-15 01:33S 32°48' E 152°18'1110.7
2014-Dec-15 00:33S 32°55' E 152°09'1010.1
2014-Dec-14 23:33S 32°57' E 151°57'8 8.0
2014-Dec-14 22:33S 32°55' E 151°48'2 1.5
2014-Dec-14 21:21S 32°54' E 151°46'0 0.0
2014-Dec-14 20:27S 32°54' E 151°46'0 0.0
2014-Dec-14 19:33S 32°54' E 151°46'0 0.0
2014-Dec-14 18:33S 32°54' E 151°46'0 0.0
2014-Dec-14 17:33S 32°54' E 151°46'0 0.0
2014-Dec-14 16:33S 32°54' E 151°46'0 0.0
2014-Dec-14 15:33S 32°54' E 151°46'0 0.0
2014-Dec-14 14:33S 32°54' E 151°46'0 0.0
2014-Dec-14 13:33S 32°54' E 151°46'0 0.0
2014-Dec-14 12:33S 32°54' E 151°46'0 0.0
2014-Dec-14 11:33S 32°54' E 151°46'0 0.0
2014-Dec-14 10:33S 32°54' E 151°46'0 0.0
2014-Dec-14 09:33S 32°54' E 151°46'0 0.0
2014-Dec-14 08:33S 32°54' E 151°46'0 0.0
2014-Dec-14 07:33S 32°54' E 151°46'0 0.0
2014-Dec-14 06:33S 32°54' E 151°46'0 0.0
2014-Dec-14 05:33S 32°54' E 151°46'0 0.0
2014-Dec-14 04:33S 32°54' E 151°46'0 0.0
2014-Dec-14 03:33S 32°54' E 151°46'0 0.0
2014-Dec-14 02:33S 32°54' E 151°46'0 0.0
2014-Dec-14 01:33S 32°54' E 151°46'0 0.0
2014-Dec-14 00:33S 32°54' E 151°46'0 0.0
2014-Dec-13 23:33S 32°54' E 151°46'0 0.0
2014-Dec-13 22:33S 32°54' E 151°46'0 0.0
2014-Dec-13 21:33S 32°54' E 151°46'0 0.0
2014-Dec-13 20:33S 32°54' E 151°46'0 0.0
2014-Dec-13 19:33S 32°54' E 151°46'0 0.0
2014-Dec-13 18:33S 32°54' E 151°46'0 0.0
2014-Dec-13 17:33S 32°54' E 151°46'0 0.0
2014-Dec-13 16:33S 32°54' E 151°46'0 0.0
2014-Dec-13 15:33S 32°54' E 151°46'0 0.0
2014-Dec-13 14:33S 32°54' E 151°46'0 0.0
2014-Dec-13 13:33S 32°54' E 151°46'0 0.0
2014-Dec-13 12:33S 32°54' E 151°46'0 0.0
2014-Dec-13 11:33S 32°54' E 151°46'0 0.0
2014-Dec-13 10:33S 32°54' E 151°46'0 0.0
2014-Dec-13 09:33S 32°54' E 151°46'0 0.0
2014-Dec-13 08:33S 32°54' E 151°46'0 0.1
2014-Dec-13 07:33S 32°54' E 151°46'4 4.1
2014-Dec-13 06:33S 32°56' E 151°50'7 7.1
2014-Dec-13 05:34S 33°02' E 151°56'4 3.5
2014-Dec-13 04:29S 33°05' E 151°58'2 1.8
2014-Dec-13 03:29S 33°07' E 151°59'2 1.8
2014-Dec-13 02:32S 33°08' E 152°00'2 2.1
2014-Dec-13 01:33S 33°10' E 152°01'9 8.9
2014-Dec-13 00:33S 33°17' E 152°07'5 3.7
2014-Dec-12 23:15S 33°13' E 152°06'5 7.7
2014-Dec-12 22:33S 33°07' E 152°04'2 1.8
2014-Dec-12 21:33S 33°09' E 152°04'1110.9
2014-Dec-12 20:31S 33°20' E 152°07'1010.2
2014-Dec-12 19:33S 33°11' E 152°03'7 6.7
2014-Dec-12 18:34S 33°04' E 152°00'6 6.0
2014-Dec-12 17:33S 33°10' E 152°03'3 1.4
2014-Dec-12 15:33S 33°13' E 152°04'7 7.0
2014-Dec-12 14:33S 33°06' E 152°02'8 7.7
2014-Dec-12 13:33S 32°58' E 151°59'1010.4
2014-Dec-12 12:33S 33°09' E 152°03'1110.8
2014-Dec-12 11:32S 33°19' E 152°08'4 3.3
2014-Dec-12 10:26S 33°16' E 152°05'3 3.7
2014-Dec-12 09:31S 33°13' E 152°04'6 6.7
2014-Dec-12 08:33S 33°06' E 152°02'7 7.0
2014-Dec-12 07:33S 33°13' E 152°05'1 0.6
2014-Dec-12 05:25S 33°14' E 152°05'5 5.7
2014-Dec-12 04:34S 33°10' E 152°03'6 5.9
2014-Dec-12 03:33S 33°04' E 152°01'6 5.7
2014-Dec-12 02:33S 32°59' E 151°59'3 2.9
2014-Dec-12 01:33S 32°56' E 152°00'8 8.4
2014-Dec-12 00:33S 32°56' E 152°10'1010.1
2014-Dec-11 23:33S 32°56' E 152°22'6 6.5
2014-Dec-11 22:33S 32°52' E 152°28'6 6.4
2014-Dec-11 21:33S 32°46' E 152°30'7 6.5
2014-Dec-11 20:33S 32°40' E 152°33'7 6.9
2014-Dec-11 19:33S 32°34' E 152°37'9 6.8
2014-Dec-11 18:14S 32°28' E 152°45'2 3.0
2014-Dec-11 17:32S 32°26' E 152°44'4 3.6
2014-Dec-11 16:33S 32°23' E 152°47'28711.5
2014-Dec-10 15:33S 27°40' E 153°40'1414.2
2014-Dec-10 14:33S 27°26' E 153°42'7214.5
2014-Dec-10 09:33S 26°14' E 153°51'1715.9
2014-Dec-10 08:30S 25°57' E 153°54'  
Track history (hours):
 
Tides and Currents Weather Stations Pressure Air Temp Water Temp Dewpoint Dewpoint Depression Visibility Wind Speed Wind Dir Waves Ship Positions

Coral Topaz

Last reported at 2014-Dec-17 00:23 UTC. Time now 2014-Dec-18 19:31 UTC.
Position S 25°55' E 153°55'.

Length 225 m; draft 12.5 m.

Type: Ship. MMSI: 372904000.

Date/timePositionNaut miles runAvg speedWind from/ knotsBaromVisibWave heightAir tempDewpointWater temp
2014-Dec-17 00:23S 25°55' E 153°55'16 8.5
2014-Dec-16 22:31S 26°11' E 153°52'11 9.3
2014-Dec-16 21:22S 26°21' E 153°51'810.0
2014-Dec-16 20:33S 26°30' E 153°50'1010.4
2014-Dec-16 19:33S 26°40' E 153°48'1210.5
2014-Dec-16 18:25S 26°52' E 153°47'910.4
2014-Dec-16 17:33S 27°00' E 153°46'1010.5
2014-Dec-16 16:33S 27°11' E 153°44'1110.6
2014-Dec-16 15:33S 27°21' E 153°42'1010.4
2014-Dec-16 14:33S 27°32' E 153°41'1010.0
2014-Dec-16 13:33S 27°42' E 153°39'10 9.8
2014-Dec-16 12:33S 27°51' E 153°40'9 9.3
2014-Dec-16 11:33S 28°00' E 153°42'9 9.0
2014-Dec-16 10:33S 28°09' E 153°44'271 8.7
2014-Dec-15 03:32S 32°34' E 152°36'1010.0
2014-Dec-15 02:33S 32°41' E 152°28'1110.7
2014-Dec-15 01:33S 32°48' E 152°18'1110.7
2014-Dec-15 00:33S 32°55' E 152°09'1010.1
2014-Dec-14 23:33S 32°57' E 151°57'8 8.0
2014-Dec-14 22:33S 32°55' E 151°48'2 1.5
2014-Dec-14 21:21S 32°54' E 151°46'0 0.0
2014-Dec-14 20:27S 32°54' E 151°46'0 0.0
2014-Dec-14 19:33S 32°54' E 151°46'0 0.0
2014-Dec-14 18:33S 32°54' E 151°46'0 0.0
2014-Dec-14 17:33S 32°54' E 151°46'0 0.0
2014-Dec-14 16:33S 32°54' E 151°46'0 0.0
2014-Dec-14 15:33S 32°54' E 151°46'0 0.0
2014-Dec-14 14:33S 32°54' E 151°46'0 0.0
2014-Dec-14 13:33S 32°54' E 151°46'0 0.0
2014-Dec-14 12:33S 32°54' E 151°46'0 0.0
2014-Dec-14 11:33S 32°54' E 151°46'0 0.0
2014-Dec-14 10:33S 32°54' E 151°46'0 0.0
2014-Dec-14 09:33S 32°54' E 151°46'0 0.0
2014-Dec-14 08:33S 32°54' E 151°46'0 0.0
2014-Dec-14 07:33S 32°54' E 151°46'0 0.0
2014-Dec-14 06:33S 32°54' E 151°46'0 0.0
2014-Dec-14 05:33S 32°54' E 151°46'0 0.0
2014-Dec-14 04:33S 32°54' E 151°46'0 0.0
2014-Dec-14 03:33S 32°54' E 151°46'0 0.0
2014-Dec-14 02:33S 32°54' E 151°46'0 0.0
2014-Dec-14 01:33S 32°54' E 151°46'0 0.0
2014-Dec-14 00:33S 32°54' E 151°46'0 0.0
2014-Dec-13 23:33S 32°54' E 151°46'0 0.0
2014-Dec-13 22:33S 32°54' E 151°46'0 0.0
2014-Dec-13 21:33S 32°54' E 151°46'0 0.0
2014-Dec-13 20:33S 32°54' E 151°46'0 0.0
2014-Dec-13 19:33S 32°54' E 151°46'0 0.0
2014-Dec-13 18:33S 32°54' E 151°46'0 0.0
2014-Dec-13 17:33S 32°54' E 151°46'0 0.0
2014-Dec-13 16:33S 32°54' E 151°46'0 0.0
2014-Dec-13 15:33S 32°54' E 151°46'0 0.0
2014-Dec-13 14:33S 32°54' E 151°46'0 0.0
2014-Dec-13 13:33S 32°54' E 151°46'0 0.0
2014-Dec-13 12:33S 32°54' E 151°46'0 0.0
2014-Dec-13 11:33S 32°54' E 151°46'0 0.0
2014-Dec-13 10:33S 32°54' E 151°46'0 0.0
2014-Dec-13 09:33S 32°54' E 151°46'0 0.0
2014-Dec-13 08:33S 32°54' E 151°46'0 0.1
2014-Dec-13 07:33S 32°54' E 151°46'4 4.1
2014-Dec-13 06:33S 32°56' E 151°50'7 7.1
2014-Dec-13 05:34S 33°02' E 151°56'4 3.5
2014-Dec-13 04:29S 33°05' E 151°58'2 1.8
2014-Dec-13 03:29S 33°07' E 151°59'2 1.8
2014-Dec-13 02:32S 33°08' E 152°00'2 2.1
2014-Dec-13 01:33S 33°10' E 152°01'9 8.9
2014-Dec-13 00:33S 33°17' E 152°07'5 3.7
2014-Dec-12 23:15S 33°13' E 152°06'5 7.7
2014-Dec-12 22:33S 33°07' E 152°04'2 1.8
2014-Dec-12 21:33S 33°09' E 152°04'1110.9
2014-Dec-12 20:31S 33°20' E 152°07'1010.2
2014-Dec-12 19:33S 33°11' E 152°03'7 6.7
2014-Dec-12 18:34S 33°04' E 152°00'6 6.0
2014-Dec-12 17:33S 33°10' E 152°03'3 1.4
2014-Dec-12 15:33S 33°13' E 152°04'7 7.0
2014-Dec-12 14:33S 33°06' E 152°02'8 7.7
2014-Dec-12 13:33S 32°58' E 151°59'1010.4
2014-Dec-12 12:33S 33°09' E 152°03'1110.8
2014-Dec-12 11:32S 33°19' E 152°08'4 3.3
2014-Dec-12 10:26S 33°16' E 152°05'3 3.7
2014-Dec-12 09:31S 33°13' E 152°04'6 6.7
2014-Dec-12 08:33S 33°06' E 152°02'7 7.0
2014-Dec-12 07:33S 33°13' E 152°05'1 0.6
2014-Dec-12 05:25S 33°14' E 152°05'5 5.7
2014-Dec-12 04:34S 33°10' E 152°03'6 5.9
2014-Dec-12 03:33S 33°04' E 152°01'6 5.7
2014-Dec-12 02:33S 32°59' E 151°59'3 2.9
2014-Dec-12 01:33S 32°56' E 152°00'8 8.4
2014-Dec-12 00:33S 32°56' E 152°10'1010.1
2014-Dec-11 23:33S 32°56' E 152°22'6 6.5
2014-Dec-11 22:33S 32°52' E 152°28'6 6.4
2014-Dec-11 21:33S 32°46' E 152°30'7 6.5
2014-Dec-11 20:33S 32°40' E 152°33'7 6.9
2014-Dec-11 19:33S 32°34' E 152°37'9 6.8
2014-Dec-11 18:14S 32°28' E 152°45'2 3.0
2014-Dec-11 17:32S 32°26' E 152°44'4 3.6
2014-Dec-11 16:33S 32°23' E 152°47'28711.5
2014-Dec-10 15:33S 27°40' E 153°40'1414.2
2014-Dec-10 14:33S 27°26' E 153°42'7214.5
2014-Dec-10 09:33S 26°14' E 153°51'1715.9
2014-Dec-10 08:30S 25°57' E 153°54'  

Dump ship's entire track history